Time;durP1;ratioP1;P1;durP2;ratioP2;P2;SDS_P1;SDS_P2;PMS_P1;PMS_P2;Temp;Humidity;BMP_temperature;BMP_pressure;BME280_temperature;BME280_humidity;BME280_pressure;Samples;Min_cycle;Max_cycle;Signal;HPM_P1;HPM_P2
2021/04/09 00:01:50;;;;;;;33.78;20.13;;;0.80;99.90;;;;;;5095782;28;20035;-67
2021/04/09 00:04:16;;;;;;;33.03;20.40;;;0.90;99.90;;;;;;5096326;28;20020;-67
2021/04/09 00:06:42;;;;;;;36.88;21.23;;;0.80;99.90;;;;;;5096031;28;20030;-67
2021/04/09 00:09:09;;;;;;;34.22;20.73;;;0.90;99.90;;;;;;5096095;28;20021;-67
2021/04/09 00:11:35;;;;;;;32.72;21.42;;;0.90;99.90;;;;;;5096194;28;20016;-67
2021/04/09 00:14:01;;;;;;;35.72;21.48;;;0.90;99.90;;;;;;5096138;28;20028;-67
2021/04/09 00:16:27;;;;;;;37.88;19.38;;;0.90;99.90;;;;;;5096073;28;20091;-67
2021/04/09 00:18:52;;;;;;;36.08;20.30;;;1.00;99.90;;;;;;5096016;28;20110;-67
2021/04/09 00:21:18;;;;;;;33.40;20.40;;;1.00;99.90;;;;;;5095976;28;20031;-67
2021/04/09 00:23:44;;;;;;;39.15;20.02;;;1.00;99.90;;;;;;5094527;28;20469;-67
2021/04/09 00:26:09;;;;;;;38.38;20.98;;;1.00;99.90;;;;;;5095557;28;20024;-67
2021/04/09 00:28:35;;;;;;;38.97;19.75;;;1.00;99.90;;;;;;5095504;28;20089;-67
2021/04/09 00:31:00;;;;;;;29.35;18.70;;;1.00;99.90;;;;;;5095504;28;20049;-67
2021/04/09 00:33:26;;;;;;;31.58;17.50;;;1.00;99.90;;;;;;5095730;28;20027;-67
2021/04/09 00:35:51;;;;;;;27.38;18.13;;;1.10;99.90;;;;;;5095409;28;20028;-67
2021/04/09 00:38:17;;;;;;;29.67;18.33;;;1.10;99.90;;;;;;5095076;28;20082;-66
2021/04/09 00:40:43;;;;;;;29.95;18.20;;;1.10;99.90;;;;;;5095576;28;20020;-67
2021/04/09 00:43:09;;;;;;;28.90;17.02;;;1.10;99.90;;;;;;5095251;28;20040;-66
2021/04/09 00:45:35;;;;;;;32.83;19.52;;;1.10;99.90;;;;;;5095520;28;20147;-67
2021/04/09 00:48:02;;;;;;;31.80;17.33;;;1.20;99.90;;;;;;5094212;28;20020;-67
2021/04/09 00:50:28;;;;;;;33.92;17.48;;;1.10;99.90;;;;;;5093914;28;20503;-67
2021/04/09 00:52:54;;;;;;;30.48;17.90;;;1.10;99.90;;;;;;5095295;28;20020;-66
2021/04/09 00:55:21;;;;;;;32.53;17.85;;;1.00;99.90;;;;;;5095010;28;20027;-67
2021/04/09 00:57:50;;;;;;;30.88;17.92;;;1.00;99.90;;;;;;5093759;28;20024;-67
2021/04/09 01:00:16;;;;;;;27.92;17.35;;;1.00;99.90;;;;;;5094912;28;20115;-67
2021/04/09 01:02:43;;;;;;;31.17;19.10;;;1.00;99.90;;;;;;5094846;28;20020;-67
2021/04/09 01:05:11;;;;;;;35.90;19.90;;;1.10;99.90;;;;;;5095115;28;20474;-66
2021/04/09 01:07:39;;;;;;;33.97;19.77;;;1.10;99.90;;;;;;5094506;28;20071;-66
2021/04/09 01:10:05;;;;;;;28.23;17.55;;;1.10;99.90;;;;;;5094738;28;20024;-66
2021/04/09 01:12:31;;;;;;;32.70;18.95;;;1.20;99.90;;;;;;5094988;28;20051;-67
2021/04/09 01:14:57;;;;;;;34.08;18.38;;;1.10;99.90;;;;;;5094969;28;20102;-67
2021/04/09 01:17:33;;;;;;;30.75;17.73;;;1.20;99.90;;;;;;5094625;28;20062;-67
2021/04/09 01:20:38;;;;;;;28.90;18.60;;;1.10;99.90;;;;;;5093683;28;20044;-67
2021/04/09 01:23:15;;;;;;;30.55;17.83;;;1.10;99.90;;;;;;5092877;28;20030;-67
2021/04/09 01:29:15;;;;;;;30.27;20.63;;;1.00;99.90;;;;;;5110848;27;20390;-67
2021/04/09 01:32:05;;;;;;;32.60;19.17;;;1.10;99.90;;;;;;5111371;28;20119;-67
2021/04/09 01:34:34;;;;;;;32.55;18.75;;;1.10;99.90;;;;;;5109845;28;20016;-67
2021/04/09 01:37:11;;;;;;;27.60;17.20;;;1.10;99.90;;;;;;5111498;28;20027;-67
2021/04/09 01:39:40;;;;;;;27.48;17.25;;;1.10;99.90;;;;;;5111154;28;20034;-67
2021/04/09 01:42:09;;;;;;;31.20;18.38;;;1.10;99.90;;;;;;5111386;28;20023;-66
2021/04/09 01:44:37;;;;;;;30.95;18.02;;;1.10;99.90;;;;;;5111042;28;20032;-67
2021/04/09 01:47:04;;;;;;;28.45;17.10;;;1.20;99.90;;;;;;5111245;28;20020;-67
2021/04/09 01:49:33;;;;;;;32.33;16.52;;;1.20;99.90;;;;;;5111569;28;20024;-66
2021/04/09 01:52:00;;;;;;;33.38;19.20;;;1.20;99.90;;;;;;5111268;28;20015;-66
2021/04/09 01:54:27;;;;;;;34.70;18.42;;;1.20;99.90;;;;;;5111459;28;20019;-67
2021/04/09 01:56:54;;;;;;;26.20;17.67;;;1.20;99.90;;;;;;5111156;28;20028;-66
2021/04/09 01:59:22;;;;;;;29.85;19.02;;;1.20;99.90;;;;;;5111329;28;20107;-67
2021/04/09 02:01:49;;;;;;;34.72;18.48;;;1.20;99.90;;;;;;5111282;28;20089;-67
2021/04/09 02:04:19;;;;;;;29.42;17.80;;;1.20;99.90;;;;;;5110974;28;20035;-67
2021/04/09 02:06:48;;;;;;;33.35;18.10;;;1.20;99.90;;;;;;5109342;28;20028;-66
2021/04/09 02:09:14;;;;;;;38.10;19.35;;;1.10;99.90;;;;;;5111153;28;20372;-67
2021/04/09 02:11:43;;;;;;;30.95;18.13;;;1.10;99.90;;;;;;5109262;28;20396;-67
2021/04/09 02:14:14;;;;;;;35.05;18.60;;;1.00;99.90;;;;;;5109316;28;20024;-66
2021/04/09 02:16:42;;;;;;;33.22;17.67;;;1.00;99.90;;;;;;5109556;28;20487;-67
2021/04/09 02:19:08;;;;;;;28.35;17.73;;;1.00;99.90;;;;;;5110991;28;20480;-67
2021/04/09 02:21:36;;;;;;;31.45;17.55;;;0.90;99.90;;;;;;5110912;28;20027;-66
2021/04/09 02:24:04;;;;;;;33.80;16.38;;;0.90;99.90;;;;;;5110872;28;20024;-66
2021/04/09 02:26:30;;;;;;;33.47;18.60;;;1.00;99.90;;;;;;5110521;28;20028;-67
2021/04/09 02:28:58;;;;;;;34.47;19.55;;;1.00;99.90;;;;;;5110842;28;20488;-66
2021/04/09 02:31:23;;;;;;;33.45;17.80;;;1.00;99.90;;;;;;5110502;28;20102;-67
2021/04/09 02:33:49;;;;;;;33.53;17.58;;;0.90;99.90;;;;;;5110416;28;20058;-66
2021/04/09 02:36:20;;;;;;;31.67;17.88;;;1.00;99.90;;;;;;5110654;28;20027;-67
2021/04/09 02:38:49;;;;;;;29.88;16.23;;;1.00;99.90;;;;;;5103065;28;20020;-66
2021/04/09 02:41:16;;;;;;;27.88;16.58;;;1.10;99.90;;;;;;5095715;28;20020;-66
2021/04/09 02:43:42;;;;;;;31.23;16.30;;;1.10;99.90;;;;;;5095477;28;20437;-66
2021/04/09 02:46:13;;;;;;;32.17;15.20;;;1.20;99.90;;;;;;5096618;28;20020;-66
2021/04/09 02:48:50;;;;;;;26.10;13.77;;;1.50;99.90;;;;;;5096799;28;20035;-66
2021/04/09 02:51:18;;;;;;;30.58;14.75;;;1.50;99.90;;;;;;5096785;28;20031;-66
2021/04/09 02:53:44;;;;;;;25.00;13.20;;;1.60;99.90;;;;;;5096755;28;20111;-66
2021/04/09 02:56:12;;;;;;;22.25;13.02;;;1.70;99.90;;;;;;5095214;28;20039;-68
2021/04/09 02:58:38;;;;;;;26.20;14.43;;;1.80;99.90;;;;;;5096624;28;20024;-66
2021/04/09 03:01:04;;;;;;;26.67;13.43;;;1.80;99.90;;;;;;5094780;28;20028;-66
2021/04/09 03:03:30;;;;;;;26.23;13.30;;;1.80;99.90;;;;;;5096558;28;20039;-67
2021/04/09 03:05:56;;;;;;;28.00;12.60;;;2.10;99.90;;;;;;5095983;28;20116;-66
2021/04/09 03:08:22;;;;;;;25.25;13.07;;;2.20;99.90;;;;;;5095862;28;20020;-66
2021/04/09 03:10:48;;;;;;;24.77;12.57;;;2.50;99.90;;;;;;5094657;28;20024;-67
2021/04/09 03:13:14;;;;;;;19.70;11.50;;;2.70;99.90;;;;;;5094933;28;20377;-67
2021/04/09 03:15:45;;;;;;;26.88;11.48;;;2.90;99.90;;;;;;5096314;28;20032;-66
2021/04/09 03:18:12;;;;;;;25.55;11.80;;;2.90;99.90;;;;;;5096266;28;20529;-66
2021/04/09 03:20:38;;;;;;;21.48;11.50;;;2.90;99.90;;;;;;5095990;28;20036;-66
2021/04/09 03:23:04;;;;;;;28.08;12.32;;;2.90;99.90;;;;;;5096174;28;20061;-66
2021/04/09 03:25:31;;;;;;;19.88;10.73;;;3.10;99.90;;;;;;5096175;28;20035;-67
2021/04/09 03:27:56;;;;;;;21.85;10.98;;;3.10;99.90;;;;;;5095413;28;20044;-67
2021/04/09 03:30:23;;;;;;;25.38;11.57;;;3.30;99.90;;;;;;5095483;28;20077;-67
2021/04/09 03:32:49;;;;;;;27.40;11.07;;;3.40;99.90;;;;;;5095762;28;20106;-67
2021/04/09 03:35:17;;;;;;;20.08;10.00;;;3.50;99.90;;;;;;5094770;28;20032;-67
2021/04/09 03:37:43;;;;;;;19.95;10.13;;;3.60;99.90;;;;;;5095618;28;20054;-67
2021/04/09 03:40:10;;;;;;;20.58;10.90;;;3.70;99.90;;;;;;5095583;28;20031;-66
2021/04/09 03:42:35;;;;;;;26.80;10.73;;;3.80;99.90;;;;;;5095776;28;20031;-67
2021/04/09 03:45:01;;;;;;;22.88;10.35;;;3.90;99.90;;;;;;5095711;28;20028;-66
2021/04/09 03:47:27;;;;;;;16.83;10.10;;;4.10;99.90;;;;;;5095399;28;20148;-66
2021/04/09 03:49:52;;;;;;;17.98;10.10;;;4.10;99.90;;;;;;5095056;28;20029;-66
2021/04/09 03:52:18;;;;;;;14.75;8.65;;;4.20;99.90;;;;;;5095106;28;20031;-67
2021/04/09 03:54:43;;;;;;;24.42;10.85;;;4.30;99.90;;;;;;5095281;28;20027;-67
2021/04/09 03:57:09;;;;;;;20.38;8.95;;;4.40;99.90;;;;;;5095495;28;20036;-66
2021/04/09 03:59:35;;;;;;;14.70;8.90;;;4.50;99.90;;;;;;5095472;28;20419;-67
2021/04/09 04:02:01;;;;;;;19.92;9.93;;;4.50;99.90;;;;;;5094253;28;20449;-67
2021/04/09 04:04:26;;;;;;;16.80;9.55;;;4.50;99.90;;;;;;5093534;28;20035;-67
2021/04/09 04:06:52;;;;;;;24.98;10.25;;;4.50;99.90;;;;;;5093787;28;20447;-67
2021/04/09 04:09:18;;;;;;;19.23;9.93;;;4.50;99.90;;;;;;5094111;28;20476;-67
2021/04/09 04:11:45;;;;;;;23.63;9.35;;;4.60;99.90;;;;;;5094970;28;20024;-67
2021/04/09 04:14:10;;;;;;;16.95;9.00;;;4.50;99.90;;;;;;5095174;28;20019;-66
2021/04/09 04:16:36;;;;;;;17.92;8.63;;;4.60;99.90;;;;;;5093940;28;20453;-66
2021/04/09 04:19:02;;;;;;;15.88;9.57;;;4.70;99.90;;;;;;5095071;28;20020;-66
2021/04/09 04:21:27;;;;;;;18.67;9.45;;;4.70;99.90;;;;;;5095010;28;20123;-66
2021/04/09 04:23:53;;;;;;;19.38;9.95;;;4.70;99.90;;;;;;5093844;28;20091;-67
2021/04/09 04:26:19;;;;;;;18.67;8.98;;;4.60;99.90;;;;;;5094721;28;20024;-66
2021/04/09 04:28:45;;;;;;;19.00;9.57;;;4.80;99.90;;;;;;5094141;28;20079;-67
2021/04/09 04:31:11;;;;;;;19.38;9.88;;;4.80;99.90;;;;;;5095645;28;20024;-67
2021/04/09 04:33:37;;;;;;;23.08;9.95;;;4.80;99.90;;;;;;5094376;28;20027;-65
2021/04/09 04:36:04;;;;;;;21.85;10.15;;;4.80;99.90;;;;;;5094194;28;20165;-67
2021/04/09 04:38:30;;;;;;;16.45;9.48;;;4.80;99.90;;;;;;5094752;28;20027;-65
2021/04/09 04:40:57;;;;;;;17.52;9.80;;;5.00;99.90;;;;;;5094738;28;20098;-65
2021/04/09 04:43:23;;;;;;;15.63;9.77;;;5.00;99.90;;;;;;5094381;28;20475;-65
2021/04/09 04:45:48;;;;;;;15.52;9.55;;;5.00;99.90;;;;;;5094305;28;20134;-67
2021/04/09 04:48:14;;;;;;;17.73;9.57;;;5.00;99.90;;;;;;5094217;28;20035;-65
2021/04/09 04:50:39;;;;;;;15.00;9.50;;;5.10;99.90;;;;;;5094234;28;20035;-65
2021/04/09 04:53:05;;;;;;;18.58;9.82;;;5.20;99.90;;;;;;5092711;28;20024;-66
2021/04/09 04:55:31;;;;;;;18.65;10.10;;;5.10;99.90;;;;;;5094489;28;20032;-66
2021/04/09 04:57:57;;;;;;;21.48;10.82;;;5.00;99.90;;;;;;5094452;28;20016;-65
2021/04/09 05:00:23;;;;;;;19.13;9.63;;;5.00;99.90;;;;;;5094367;28;20522;-66
2021/04/09 05:02:48;;;;;;;16.98;9.77;;;5.10;99.90;;;;;;5093880;28;20020;-67
2021/04/09 05:05:14;;;;;;;21.00;10.07;;;5.10;99.90;;;;;;5094068;28;20046;-67
2021/04/09 05:07:40;;;;;;;16.90;9.85;;;5.20;99.90;;;;;;5075649;28;20118;-67
2021/04/09 05:10:07;;;;;;;19.67;9.70;;;5.30;99.90;;;;;;5093983;28;20461;-67
2021/04/09 05:12:33;;;;;;;23.75;10.18;;;5.30;99.90;;;;;;5092501;28;20072;-67
2021/04/09 05:14:58;;;;;;;21.13;10.40;;;5.30;99.90;;;;;;5094238;28;20020;-67
2021/04/09 05:17:24;;;;;;;25.35;9.88;;;5.50;99.90;;;;;;5094120;28;20028;-67
2021/04/09 05:19:49;;;;;;;18.08;10.45;;;5.50;99.90;;;;;;5093874;28;20106;-67
2021/04/09 05:22:15;;;;;;;15.70;8.68;;;5.50;99.90;;;;;;5094047;28;20052;-67
2021/04/09 05:24:40;;;;;;;22.20;10.98;;;5.50;99.90;;;;;;5092899;28;20035;-67
2021/04/09 05:27:06;;;;;;;22.65;10.00;;;5.60;99.90;;;;;;5093617;28;20048;-67
2021/04/09 05:29:33;;;;;;;20.92;10.15;;;5.60;99.90;;;;;;5093759;28;20026;-67
2021/04/09 05:31:59;;;;;;;21.40;10.18;;;5.70;99.90;;;;;;5092773;28;20020;-67
2021/04/09 05:34:25;;;;;;;24.42;10.75;;;5.70;99.90;;;;;;5093986;28;20085;-67
2021/04/09 05:36:50;;;;;;;17.85;10.77;;;5.70;99.90;;;;;;5093911;28;20025;-67
2021/04/09 05:39:16;;;;;;;19.00;9.93;;;5.80;99.90;;;;;;5093974;28;20028;-67
2021/04/09 05:41:41;;;;;;;19.17;10.80;;;5.90;99.90;;;;;;5093626;28;20024;-67
2021/04/09 05:44:07;;;;;;;18.30;10.38;;;5.90;99.90;;;;;;5093868;28;20032;-66
2021/04/09 05:46:33;;;;;;;19.45;10.32;;;5.90;99.90;;;;;;5093801;28;20111;-67
2021/04/09 05:48:58;;;;;;;20.77;10.77;;;6.00;99.90;;;;;;5093861;28;20461;-67
2021/04/09 05:51:24;;;;;;;17.63;11.20;;;6.10;99.90;;;;;;5093781;28;20024;-67
2021/04/09 05:53:50;;;;;;;22.60;12.02;;;6.20;99.90;;;;;;5092405;28;20098;-67
2021/04/09 05:56:16;;;;;;;22.83;11.10;;;6.30;99.90;;;;;;5093246;28;20024;-65
2021/04/09 05:58:41;;;;;;;20.35;11.50;;;6.30;99.90;;;;;;5093722;28;20028;-67
2021/04/09 06:01:07;;;;;;;22.58;12.20;;;6.40;99.90;;;;;;5092587;28;20357;-67
2021/04/09 06:03:32;;;;;;;28.25;11.98;;;6.60;99.90;;;;;;5093621;28;20077;-68
2021/04/09 06:05:58;;;;;;;23.17;11.02;;;6.80;99.90;;;;;;5093144;28;20024;-67
2021/04/09 06:08:23;;;;;;;20.20;11.13;;;7.00;99.90;;;;;;5092706;28;20365;-68
2021/04/09 06:10:49;;;;;;;26.77;12.10;;;7.40;99.90;;;;;;5082116;28;20637;-67
2021/04/09 06:13:15;;;;;;;23.83;11.38;;;7.50;99.90;;;;;;5073068;28;20121;-67
2021/04/09 06:15:41;;;;;;;25.45;11.38;;;7.60;99.90;;;;;;5082454;28;20103;-67
2021/04/09 06:18:08;;;;;;;20.50;10.45;;;7.70;99.90;;;;;;5096647;28;20067;-67
2021/04/09 06:20:33;;;;;;;20.92;10.88;;;7.70;99.90;;;;;;5096952;28;20424;-66
2021/04/09 06:22:59;;;;;;;19.67;10.70;;;7.80;99.90;;;;;;5088486;28;20024;-69
2021/04/09 06:25:25;;;;;;;22.58;10.85;;;7.70;99.90;;;;;;5076891;28;20381;-68
2021/04/09 06:27:51;;;;;;;18.52;9.90;;;7.90;99.90;;;;;;5094770;28;20550;-65
2021/04/09 06:30:17;;;;;;;24.60;10.95;;;8.00;99.90;;;;;;5096035;28;20492;-67
2021/04/09 06:32:43;;;;;;;17.48;9.50;;;8.10;99.90;;;;;;5096185;28;20020;-67
2021/04/09 06:35:09;;;;;;;16.55;9.80;;;8.20;99.90;;;;;;5096106;28;20027;-67
2021/04/09 06:37:34;;;;;;;22.77;10.52;;;8.10;99.90;;;;;;5094912;28;20024;-67
2021/04/09 06:40:00;;;;;;;17.73;10.45;;;8.30;99.90;;;;;;5095941;28;20043;-66
2021/04/09 06:42:26;;;;;;;19.55;9.65;;;8.40;99.90;;;;;;5096587;28;20485;-68
2021/04/09 06:44:51;;;;;;;19.38;9.80;;;8.40;99.90;;;;;;5096813;28;20032;-68
2021/04/09 06:47:19;;;;;;;17.58;10.07;;;8.60;99.90;;;;;;5096490;28;20379;-68
2021/04/09 06:49:45;;;;;;;19.33;9.68;;;9.10;99.90;;;;;;5096189;28;20023;-67
2021/04/09 06:52:13;;;;;;;18.95;10.00;;;9.30;99.90;;;;;;5096201;28;20016;-68
2021/04/09 06:54:40;;;;;;;16.70;10.23;;;9.40;99.90;;;;;;5096474;28;20051;-68
2021/04/09 06:57:09;;;;;;;15.48;9.05;;;9.40;99.90;;;;;;5094585;28;20016;-67
2021/04/09 06:59:39;;;;;;;20.58;9.80;;;9.40;99.90;;;;;;5095017;28;20024;-67
2021/04/09 07:02:06;;;;;;;18.40;10.05;;;9.60;99.90;;;;;;5094484;28;20451;-67
2021/04/09 07:04:34;;;;;;;16.33;9.30;;;10.10;99.90;;;;;;5094483;28;20043;-68
2021/04/09 07:07:07;;;;;;;16.98;8.88;;;10.30;99.90;;;;;;5093837;28;20389;-67
2021/04/09 07:09:32;;;;;;;13.80;9.20;;;10.40;99.90;;;;;;5095680;28;20028;-68
2021/04/09 07:11:58;;;;;;;13.75;8.50;;;10.80;99.90;;;;;;5095942;28;20024;-67
2021/04/09 07:14:48;;;;;;;17.23;9.50;;;10.70;99.90;;;;;;5095984;28;20377;-67
2021/04/09 07:17:22;;;;;;;20.88;9.70;;;10.40;99.90;;;;;;5092822;28;20099;-67
2021/04/09 07:19:47;;;;;;;17.98;9.75;;;10.30;99.90;;;;;;5095338;28;20161;-67
2021/04/09 07:22:13;;;;;;;19.83;8.95;;;10.60;99.90;;;;;;5094862;28;20107;-70
2021/04/09 07:24:39;;;;;;;13.50;8.88;;;11.30;99.90;;;;;;5095094;28;20028;-68
2021/04/09 07:27:04;;;;;;;19.83;9.68;;;11.90;99.90;;;;;;5093399;28;20055;-68
2021/04/09 07:29:34;;;;;;;19.42;9.85;;;12.70;99.70;;;;;;5093896;28;20020;-68
2021/04/09 07:32:20;;;;;;;16.88;8.73;;;13.10;96.40;;;;;;5095328;28;20500;-68
2021/04/09 07:35:04;;;;;;;16.05;9.13;;;13.10;95.70;;;;;;5094645;28;20063;-68
2021/04/09 07:37:32;;;;;;;15.38;9.20;;;12.90;95.50;;;;;;5093988;28;20028;-68
2021/04/09 07:40:04;;;;;;;16.63;9.05;;;13.30;94.00;;;;;;5094664;28;20027;-68
2021/04/09 07:42:37;;;;;;;14.60;9.60;;;13.30;92.60;;;;;;5094585;28;20622;-68
2021/04/09 07:45:06;;;;;;;;;;;13.50;92.60;;;;;;5095299;28;20063;-68
2021/04/09 07:47:31;;;;;;;16.02;9.15;;;13.50;92.10;;;;;;5093673;28;19908;-68
2021/04/09 07:50:00;;;;;;;13.40;8.30;;;13.90;93.70;;;;;;5094165;28;20103;-69
2021/04/09 07:52:51;;;;;;;14.15;8.75;;;13.90;87.50;;;;;;5094281;28;20028;-69
2021/04/09 07:55:20;;;;;;;16.55;9.35;;;13.70;91.00;;;;;;5093223;28;20028;-69
2021/04/09 07:57:46;;;;;;;15.65;8.18;;;13.70;90.80;;;;;;5092247;28;20165;-69
2021/04/09 08:00:21;;;;;;;16.42;8.93;;;13.80;92.00;;;;;;5093909;28;20066;-69
2021/04/09 08:02:48;;;;;;;16.35;8.77;;;14.20;89.80;;;;;;5094299;28;20028;-69
2021/04/09 08:05:16;;;;;;;14.77;8.75;;;14.30;83.70;;;;;;5093280;28;20046;-68
2021/04/09 08:07:42;;;;;;;13.45;7.88;;;13.90;84.00;;;;;;5094629;28;20450;-69
2021/04/09 08:10:09;;;;;;;13.02;7.85;;;13.90;87.60;;;;;;5093079;28;20027;-69
2021/04/09 08:12:37;;;;;;;15.95;8.98;;;13.60;86.00;;;;;;5094609;28;20020;-69
2021/04/09 08:15:24;;;;;;;14.05;8.25;;;13.50;90.20;;;;;;5093378;28;20033;-69
2021/04/09 08:18:00;;;;;;;15.70;8.15;;;13.60;89.40;;;;;;5093316;28;20027;-69
2021/04/09 08:20:29;;;;;;;14.05;8.05;;;14.00;92.30;;;;;;5092321;28;20020;-69
2021/04/09 08:22:59;;;;;;;14.98;7.75;;;14.40;90.50;;;;;;5093260;28;20461;-69
2021/04/09 08:25:25;;;;;;;13.48;8.07;;;14.50;83.30;;;;;;5092408;28;20362;-69
2021/04/09 08:27:52;;;;;;;12.88;8.23;;;14.40;87.80;;;;;;5093775;28;20504;-69
2021/04/09 08:30:18;;;;;;;11.23;7.50;;;14.80;85.30;;;;;;5094803;28;20111;-69
2021/04/09 08:32:45;;;;;;;12.02;7.07;;;15.10;81.20;;;;;;5093787;28;20388;-69
2021/04/09 08:35:12;;;;;;;18.23;7.82;;;15.00;83.30;;;;;;5093677;28;20024;-69
2021/04/09 08:37:40;;;;;;;14.15;7.85;;;15.70;75.60;;;;;;5093260;28;20523;-69
2021/04/09 08:40:06;;;;;;;14.25;7.50;;;15.40;79.50;;;;;;5094668;28;20024;-69
2021/04/09 08:42:33;;;;;;;14.60;7.65;;;15.80;77.20;;;;;;5093491;28;20028;-69
2021/04/09 08:45:02;;;;;;;18.73;7.78;;;15.30;73.90;;;;;;5094240;28;20412;-69
2021/04/09 08:47:29;;;;;;;13.57;7.68;;;14.70;77.90;;;;;;5091661;28;20408;-69
2021/04/09 08:49:55;;;;;;;15.90;7.28;;;14.90;80.30;;;;;;5094453;28;20440;-69
2021/04/09 08:52:21;;;;;;;14.82;8.10;;;15.50;77.30;;;;;;5093450;28;20172;-69
2021/04/09 08:54:51;;;;;;;19.80;7.22;;;15.50;78.00;;;;;;5093969;28;20024;-68
2021/04/09 08:57:34;;;;;;;11.23;7.78;;;15.70;74.60;;;;;;5093432;28;20035;-69
2021/04/09 09:00:08;;;;;;;17.38;7.18;;;16.10;71.50;;;;;;5093686;28;20036;-69
2021/04/09 09:02:52;;;;;;;14.98;8.90;;;15.90;66.80;;;;;;5091882;28;20127;-69
2021/04/09 09:05:22;;;;;;;13.85;7.72;;;15.60;78.20;;;;;;5082853;28;20077;-70
2021/04/09 09:23:59;;;;;;;13.13;6.15;;;16.30;63.80;;;;;;5111266;27;20117;-69
2021/04/09 09:26:46;;;;;;;10.98;5.50;;;15.70;69.40;;;;;;5111521;28;20023;-69
2021/04/09 09:40:06;;;;;;;10.65;6.32;;;16.10;67.20;;;;;;5110026;27;20443;-69
2021/04/09 09:45:12;;;;;;;10.63;5.70;;;16.60;65.30;;;;;;5111969;27;20741;-68
2021/04/09 09:47:41;;;;;;;10.18;6.05;;;16.20;65.30;;;;;;5108809;28;20027;-68
2021/04/09 09:58:24;;;;;;;10.32;5.88;;;17.10;63.90;;;;;;5111258;27;20347;-70
2021/04/09 10:00:55;;;;;;;9.57;6.25;;;17.30;60.50;;;;;;5111483;28;20022;-70
2021/04/09 10:03:26;;;;;;;9.40;5.07;;;17.60;59.30;;;;;;5111493;28;20015;-69
2021/04/09 10:06:01;;;;;;;9.18;5.03;;;17.10;61.30;;;;;;5108897;28;20517;-69
2021/04/09 10:08:29;;;;;;;8.25;5.00;;;17.60;58.80;;;;;;5110933;28;20115;-69
2021/04/09 10:11:01;;;;;;;8.20;5.68;;;17.00;58.20;;;;;;5106247;28;20453;-69
2021/04/09 10:13:33;;;;;;;12.48;5.10;;;16.40;60.90;;;;;;5121764;28;20221;-70
2021/04/09 10:16:20;;;;;;;9.30;5.25;;;15.60;66.40;;;;;;5110425;28;20077;-70
2021/04/09 10:18:49;;;;;;;6.60;4.68;;;15.80;66.60;;;;;;5110260;28;20023;-70
2021/04/09 10:21:20;;;;;;;8.80;5.72;;;15.80;67.00;;;;;;5110838;28;20028;-69
2021/04/09 10:23:49;;;;;;;9.35;5.75;;;15.40;68.00;;;;;;5109845;28;20020;-69
2021/04/09 10:26:16;;;;;;;8.50;5.72;;;15.30;70.70;;;;;;5110558;28;20024;-69
2021/04/09 10:28:42;;;;;;;9.10;6.13;;;15.60;72.60;;;;;;5110027;28;20036;-69
2021/04/09 10:31:11;;;;;;;10.57;6.22;;;16.40;67.30;;;;;;5110784;28;20318;-69
2021/04/09 10:33:38;;;;;;;9.30;7.38;;;16.60;66.60;;;;;;5109762;28;20027;-69
2021/04/09 10:36:14;;;;;;;8.30;6.45;;;16.50;64.60;;;;;;5110661;28;20391;-70
2021/04/09 10:38:40;;;;;;;9.10;6.53;;;15.00;72.50;;;;;;5110352;28;20156;-69
2021/04/09 10:41:05;;;;;;;12.35;7.20;;;14.60;79.00;;;;;;5110607;28;20019;-69
2021/04/09 10:43:33;;;;;;;9.95;6.38;;;14.50;85.20;;;;;;5109384;28;20073;-69
2021/04/09 10:46:09;;;;;;;10.88;6.57;;;15.10;85.00;;;;;;5109612;28;20467;-69
2021/04/09 10:48:35;;;;;;;9.02;6.47;;;15.90;77.20;;;;;;5101150;28;20528;-70
2021/04/09 10:51:00;;;;;;;16.90;6.90;;;15.50;78.40;;;;;;5101162;28;20107;-69
2021/04/09 10:53:26;;;;;;;11.85;6.65;;;15.80;77.00;;;;;;5101025;28;20473;-69
2021/04/09 10:55:51;;;;;;;11.10;7.45;;;16.10;72.50;;;;;;5083981;28;20032;-69
2021/04/09 10:58:17;;;;;;;11.45;6.40;;;16.20;74.60;;;;;;5088432;28;20032;-70
2021/04/09 11:00:44;;;;;;;9.45;6.88;;;16.10;74.50;;;;;;5102502;28;20037;-70
2021/04/09 11:03:11;;;;;;;12.65;7.60;;;15.50;73.20;;;;;;5109868;28;20034;-69
2021/04/09 11:05:37;;;;;;;12.80;8.02;;;15.50;75.40;;;;;;5107673;28;20031;-69
2021/04/09 11:08:03;;;;;;;10.25;7.70;;;15.10;80.30;;;;;;5102693;28;20120;-69
2021/04/09 11:10:34;;;;;;;10.32;7.50;;;15.40;85.00;;;;;;5094438;28;20067;-69
2021/04/09 11:13:01;;;;;;;13.98;9.05;;;15.50;83.00;;;;;;5094857;28;20020;-69
2021/04/09 11:15:37;;;;;;;13.55;9.43;;;15.50;81.40;;;;;;5096175;28;20024;-69
2021/04/09 11:18:04;;;;;;;10.40;8.75;;;15.20;83.30;;;;;;5076363;28;20522;-69
2021/04/09 11:20:33;;;;;;;14.25;8.63;;;14.70;86.00;;;;;;5089835;28;20110;-69
2021/04/09 11:23:15;;;;;;;12.70;8.85;;;14.40;90.60;;;;;;5094895;28;20077;-69
2021/04/09 11:25:44;;;;;;;16.10;8.90;;;14.80;92.50;;;;;;5095909;28;20360;-68
2021/04/09 11:28:28;;;;;;;13.90;9.70;;;14.80;86.50;;;;;;5096214;28;20099;-69
2021/04/09 11:30:55;;;;;;;;;;;15.10;92.40;;;;;;5096093;28;20020;-69
2021/04/09 11:33:31;;;;;;;12.60;8.07;;;15.20;89.60;;;;;;5087557;28;19954;-69
2021/04/09 11:35:56;;;;;;;12.88;9.30;;;14.90;89.10;;;;;;5094915;28;20020;-69
2021/04/09 11:38:24;;;;;;;16.65;9.15;;;14.50;90.80;;;;;;5096411;28;20036;-69
2021/04/09 11:40:50;;;;;;;10.93;8.65;;;14.50;90.40;;;;;;5094440;28;20017;-69
2021/04/09 11:43:26;;;;;;;15.63;9.20;;;14.10;91.80;;;;;;5094797;28;20028;-69
2021/04/09 11:45:52;;;;;;;12.98;9.23;;;14.40;93.00;;;;;;5095114;28;20020;-69
2021/04/09 11:48:23;;;;;;;13.85;8.60;;;15.00;92.70;;;;;;5095406;28;20078;-69
2021/04/09 11:50:49;;;;;;;16.00;9.07;;;14.80;89.90;;;;;;5095136;28;20020;-69
2021/04/09 11:53:15;;;;;;;13.27;9.98;;;14.20;91.50;;;;;;5094951;28;20027;-69
2021/04/09 11:55:42;;;;;;;15.18;9.27;;;14.00;92.60;;;;;;5094417;28;20016;-69
2021/04/09 11:58:25;;;;;;;13.90;9.00;;;13.60;93.80;;;;;;5093886;28;20501;-69
2021/04/09 12:01:06;;;;;;;;;;;14.20;95.30;;;;;;5094235;28;20103;-68
2021/04/09 12:03:40;;;;;;;13.98;9.52;;;14.10;93.00;;;;;;5094729;28;19960;-69
2021/04/09 12:06:14;;;;;;;12.95;9.25;;;13.70;94.00;;;;;;5094029;28;20063;-69
2021/04/09 12:08:40;;;;;;;12.90;9.13;;;13.40;95.70;;;;;;5095108;28;20472;-69
2021/04/09 12:11:07;;;;;;;9.90;8.07;;;13.40;96.90;;;;;;5094909;28;20456;-69
2021/04/09 12:13:36;;;;;;;13.18;8.65;;;13.30;96.80;;;;;;5094231;28;20024;-69
2021/04/09 12:16:02;;;;;;;12.90;8.27;;;13.30;97.80;;;;;;5093068;28;20346;-69
2021/04/09 12:18:27;;;;;;;10.35;8.27;;;13.20;97.70;;;;;;5095150;28;20031;-68
2021/04/09 12:20:53;;;;;;;14.55;8.15;;;13.10;98.30;;;;;;5094571;28;20032;-69
2021/04/09 12:23:18;;;;;;;12.25;8.18;;;13.20;98.80;;;;;;5093333;28;20020;-69
2021/04/09 12:25:44;;;;;;;12.65;7.88;;;13.20;98.20;;;;;;5094296;28;20479;-69
2021/04/09 12:28:11;;;;;;;10.82;8.65;;;13.20;98.60;;;;;;5093448;28;20024;-69
2021/04/09 12:30:37;;;;;;;11.95;8.25;;;13.20;98.10;;;;;;5095124;28;20035;-69
2021/04/09 12:33:02;;;;;;;10.52;8.10;;;13.30;99.40;;;;;;5094311;28;20392;-69
2021/04/09 12:35:28;;;;;;;22.08;9.60;;;13.10;98.50;;;;;;5094404;28;20040;-68
2021/04/09 12:37:53;;;;;;;11.55;9.45;;;13.00;98.30;;;;;;5094433;28;20024;-68
2021/04/09 12:40:19;;;;;;;14.88;9.57;;;12.80;98.60;;;;;;5094216;28;20032;-68
2021/04/09 12:42:45;;;;;;;14.43;10.10;;;12.90;99.90;;;;;;5093076;28;20024;-68
2021/04/09 12:45:11;;;;;;;12.48;9.48;;;13.10;99.30;;;;;;5093960;28;20035;-69
2021/04/09 12:47:37;;;;;;;14.65;10.23;;;13.10;99.70;;;;;;5094388;28;20031;-68
2021/04/09 12:50:03;;;;;;;18.25;10.05;;;12.90;99.40;;;;;;5093985;28;20031;-68
2021/04/09 12:52:28;;;;;;;13.88;10.02;;;13.00;99.80;;;;;;5077012;28;20035;-69
2021/04/09 12:54:54;;;;;;;14.32;9.50;;;12.90;99.90;;;;;;5093658;28;20035;-69
2021/04/09 12:57:19;;;;;;;12.77;10.05;;;12.80;99.90;;;;;;5092125;28;20083;-69
2021/04/09 12:59:45;;;;;;;13.50;10.27;;;12.80;99.90;;;;;;5093108;28;20024;-68
2021/04/09 13:02:10;;;;;;;17.17;11.00;;;12.80;99.90;;;;;;5094465;28;20031;-68
2021/04/09 13:04:36;;;;;;;12.52;10.50;;;12.70;99.90;;;;;;5093272;28;20020;-69
2021/04/09 13:07:01;;;;;;;16.42;11.63;;;12.70;99.90;;;;;;5094605;28;20107;-68
2021/04/09 13:09:27;;;;;;;14.65;10.32;;;12.90;99.90;;;;;;5093681;28;20358;-68
2021/04/09 13:11:53;;;;;;;15.93;10.30;;;13.10;99.90;;;;;;5092779;28;20024;-68
2021/04/09 13:14:19;;;;;;;21.73;11.57;;;13.30;99.90;;;;;;5094617;28;20031;-69
2021/04/09 13:16:46;;;;;;;14.43;10.27;;;13.20;99.90;;;;;;5093152;28;20024;-68
2021/04/09 13:19:12;;;;;;;16.77;10.82;;;13.00;99.90;;;;;;5094467;28;20012;-68
2021/04/09 13:21:38;;;;;;;17.13;11.13;;;13.20;99.90;;;;;;5092006;28;20036;-68
2021/04/09 13:24:04;;;;;;;14.40;11.07;;;13.20;99.90;;;;;;5072101;28;20024;-68